sensor_id;sensor_type;location;lat;lon;timestamp;P1;durP1;ratioP1;P2;durP2;ratioP2
29902;SDS011;30288;50.514;9.678;2023-02-12T00:00:38;85.90;;;37.30;;
29902;SDS011;30288;50.514;9.678;2023-02-12T00:02:45;91.72;;;38.35;;
29902;SDS011;30288;50.514;9.678;2023-02-12T00:04:51;88.07;;;36.25;;
29902;SDS011;30288;50.514;9.678;2023-02-12T00:06:56;90.57;;;38.80;;
29902;SDS011;30288;50.514;9.678;2023-02-12T00:09:01;89.03;;;37.45;;
29902;SDS011;30288;50.514;9.678;2023-02-12T00:11:11;88.38;;;36.35;;
29902;SDS011;30288;50.514;9.678;2023-02-12T00:13:19;94.47;;;39.55;;
29902;SDS011;30288;50.514;9.678;2023-02-12T00:15:24;96.75;;;38.42;;
29902;SDS011;30288;50.514;9.678;2023-02-12T00:17:29;83.07;;;37.78;;
29902;SDS011;30288;50.514;9.678;2023-02-12T00:19:34;85.55;;;36.00;;
29902;SDS011;30288;50.514;9.678;2023-02-12T00:21:39;86.60;;;36.63;;
29902;SDS011;30288;50.514;9.678;2023-02-12T00:23:45;90.55;;;37.00;;
29902;SDS011;30288;50.514;9.678;2023-02-12T00:25:49;90.50;;;37.95;;
29902;SDS011;30288;50.514;9.678;2023-02-12T00:27:58;87.25;;;35.90;;
29902;SDS011;30288;50.514;9.678;2023-02-12T00:30:04;88.28;;;38.03;;
29902;SDS011;30288;50.514;9.678;2023-02-12T00:32:10;87.57;;;34.25;;
29902;SDS011;30288;50.514;9.678;2023-02-12T00:34:19;81.32;;;33.75;;
29902;SDS011;30288;50.514;9.678;2023-02-12T00:36:25;86.30;;;37.15;;
29902;SDS011;30288;50.514;9.678;2023-02-12T00:38:33;87.20;;;36.10;;
29902;SDS011;30288;50.514;9.678;2023-02-12T00:40:38;85.72;;;35.80;;
29902;SDS011;30288;50.514;9.678;2023-02-12T00:42:43;83.97;;;34.58;;
29902;SDS011;30288;50.514;9.678;2023-02-12T00:44:51;80.78;;;35.35;;
29902;SDS011;30288;50.514;9.678;2023-02-12T00:46:56;85.57;;;34.08;;
29902;SDS011;30288;50.514;9.678;2023-02-12T00:49:03;89.13;;;35.95;;
29902;SDS011;30288;50.514;9.678;2023-02-12T00:51:08;83.18;;;33.75;;
29902;SDS011;30288;50.514;9.678;2023-02-12T00:53:14;76.50;;;33.42;;
29902;SDS011;30288;50.514;9.678;2023-02-12T00:55:20;79.85;;;32.97;;
29902;SDS011;30288;50.514;9.678;2023-02-12T00:57:26;86.60;;;34.78;;
29902;SDS011;30288;50.514;9.678;2023-02-12T00:59:30;76.80;;;34.05;;
29902;SDS011;30288;50.514;9.678;2023-02-12T01:01:40;79.75;;;34.78;;
29902;SDS011;30288;50.514;9.678;2023-02-12T01:03:45;74.88;;;32.17;;
29902;SDS011;30288;50.514;9.678;2023-02-12T01:05:50;75.70;;;32.03;;
29902;SDS011;30288;50.514;9.678;2023-02-12T01:07:55;77.82;;;34.38;;
29902;SDS011;30288;50.514;9.678;2023-02-12T01:10:00;71.35;;;31.27;;
29902;SDS011;30288;50.514;9.678;2023-02-12T01:12:08;68.88;;;31.60;;
29902;SDS011;30288;50.514;9.678;2023-02-12T01:14:14;75.68;;;32.40;;
29902;SDS011;30288;50.514;9.678;2023-02-12T01:16:20;70.95;;;31.85;;
29902;SDS011;30288;50.514;9.678;2023-02-12T01:18:32;73.03;;;31.70;;
29902;SDS011;30288;50.514;9.678;2023-02-12T01:20:38;74.55;;;32.53;;
29902;SDS011;30288;50.514;9.678;2023-02-12T01:22:43;77.97;;;32.30;;
29902;SDS011;30288;50.514;9.678;2023-02-12T01:24:48;70.68;;;30.08;;
29902;SDS011;30288;50.514;9.678;2023-02-12T01:26:53;69.75;;;30.02;;
29902;SDS011;30288;50.514;9.678;2023-02-12T01:28:58;73.45;;;30.30;;
29902;SDS011;30288;50.514;9.678;2023-02-12T01:31:07;68.10;;;29.50;;
29902;SDS011;30288;50.514;9.678;2023-02-12T01:33:14;73.45;;;32.88;;
29902;SDS011;30288;50.514;9.678;2023-02-12T01:35:21;72.95;;;32.17;;
29902;SDS011;30288;50.514;9.678;2023-02-12T01:37:27;69.80;;;30.30;;
29902;SDS011;30288;50.514;9.678;2023-02-12T01:39:32;62.13;;;28.73;;
29902;SDS011;30288;50.514;9.678;2023-02-12T01:41:38;66.78;;;29.08;;
29902;SDS011;30288;50.514;9.678;2023-02-12T01:46:15;60.85;;;27.15;;
29902;SDS011;30288;50.514;9.678;2023-02-12T01:48:21;62.42;;;29.02;;
29902;SDS011;30288;50.514;9.678;2023-02-12T01:50:31;64.13;;;27.17;;
29902;SDS011;30288;50.514;9.678;2023-02-12T01:52:38;71.63;;;29.17;;
29902;SDS011;30288;50.514;9.678;2023-02-12T01:54:49;64.53;;;27.73;;
29902;SDS011;30288;50.514;9.678;2023-02-12T01:56:57;57.78;;;26.23;;
29902;SDS011;30288;50.514;9.678;2023-02-12T01:59:03;61.03;;;26.58;;
29902;SDS011;30288;50.514;9.678;2023-02-12T02:01:10;59.40;;;25.25;;
29902;SDS011;30288;50.514;9.678;2023-02-12T02:03:21;59.47;;;26.88;;
29902;SDS011;30288;50.514;9.678;2023-02-12T02:05:28;58.42;;;27.75;;
29902;SDS011;30288;50.514;9.678;2023-02-12T02:07:45;56.90;;;26.30;;
29902;SDS011;30288;50.514;9.678;2023-02-12T02:09:50;61.38;;;26.10;;
29902;SDS011;30288;50.514;9.678;2023-02-12T02:11:56;59.20;;;26.75;;
29902;SDS011;30288;50.514;9.678;2023-02-12T02:14:13;63.72;;;29.27;;
29902;SDS011;30288;50.514;9.678;2023-02-12T02:16:31;63.80;;;28.33;;
29902;SDS011;30288;50.514;9.678;2023-02-12T02:18:41;63.83;;;27.73;;
29902;SDS011;30288;50.514;9.678;2023-02-12T02:24:00;65.70;;;27.80;;
29902;SDS011;30288;50.514;9.678;2023-02-12T02:26:32;59.35;;;26.65;;
29902;SDS011;30288;50.514;9.678;2023-02-12T02:29:31;63.65;;;27.35;;
29902;SDS011;30288;50.514;9.678;2023-02-12T02:32:16;60.72;;;27.42;;
29902;SDS011;30288;50.514;9.678;2023-02-12T02:34:27;56.15;;;25.52;;
29902;SDS011;30288;50.514;9.678;2023-02-12T02:36:43;62.20;;;26.20;;
29902;SDS011;30288;50.514;9.678;2023-02-12T02:39:02;58.85;;;25.33;;
29902;SDS011;30288;50.514;9.678;2023-02-12T02:41:14;55.35;;;24.83;;
29902;SDS011;30288;50.514;9.678;2023-02-12T02:43:26;51.05;;;23.83;;
29902;SDS011;30288;50.514;9.678;2023-02-12T02:45:39;55.40;;;25.77;;
29902;SDS011;30288;50.514;9.678;2023-02-12T02:50:01;54.83;;;25.45;;
29902;SDS011;30288;50.514;9.678;2023-02-12T02:52:11;55.80;;;22.63;;
29902;SDS011;30288;50.514;9.678;2023-02-12T02:54:24;53.83;;;24.20;;
29902;SDS011;30288;50.514;9.678;2023-02-12T02:56:37;56.35;;;25.50;;
29902;SDS011;30288;50.514;9.678;2023-02-12T02:58:46;54.83;;;24.10;;
29902;SDS011;30288;50.514;9.678;2023-02-12T03:01:00;50.47;;;22.63;;
29902;SDS011;30288;50.514;9.678;2023-02-12T03:03:10;41.20;;;18.15;;
29902;SDS011;30288;50.514;9.678;2023-02-12T03:05:24;55.58;;;23.00;;
29902;SDS011;30288;50.514;9.678;2023-02-12T03:07:35;51.67;;;22.63;;
29902;SDS011;30288;50.514;9.678;2023-02-12T03:09:46;54.40;;;24.00;;
29902;SDS011;30288;50.514;9.678;2023-02-12T03:11:58;51.63;;;23.02;;
29902;SDS011;30288;50.514;9.678;2023-02-12T03:14:09;55.53;;;22.85;;
29902;SDS011;30288;50.514;9.678;2023-02-12T03:16:22;51.55;;;22.77;;
29902;SDS011;30288;50.514;9.678;2023-02-12T03:18:32;53.08;;;23.67;;
29902;SDS011;30288;50.514;9.678;2023-02-12T03:20:44;54.00;;;22.65;;
29902;SDS011;30288;50.514;9.678;2023-02-12T03:22:55;56.88;;;22.77;;
29902;SDS011;30288;50.514;9.678;2023-02-12T03:25:06;55.65;;;23.20;;
29902;SDS011;30288;50.514;9.678;2023-02-12T03:27:18;52.97;;;21.40;;
29902;SDS011;30288;50.514;9.678;2023-02-12T03:29:30;50.53;;;21.08;;
29902;SDS011;30288;50.514;9.678;2023-02-12T03:31:40;46.08;;;21.23;;
29902;SDS011;30288;50.514;9.678;2023-02-12T03:34:04;48.30;;;20.95;;
29902;SDS011;30288;50.514;9.678;2023-02-12T03:36:20;53.10;;;20.20;;
29902;SDS011;30288;50.514;9.678;2023-02-12T03:38:35;52.75;;;20.85;;
29902;SDS011;30288;50.514;9.678;2023-02-12T03:40:46;54.53;;;22.20;;
29902;SDS011;30288;50.514;9.678;2023-02-12T03:42:57;53.97;;;22.60;;
29902;SDS011;30288;50.514;9.678;2023-02-12T03:45:09;40.58;;;16.80;;
29902;SDS011;30288;50.514;9.678;2023-02-12T03:47:30;52.80;;;21.75;;
29902;SDS011;30288;50.514;9.678;2023-02-12T03:49:48;53.00;;;21.73;;
29902;SDS011;30288;50.514;9.678;2023-02-12T03:52:05;53.42;;;20.63;;
29902;SDS011;30288;50.514;9.678;2023-02-12T03:54:11;42.53;;;18.58;;
29902;SDS011;30288;50.514;9.678;2023-02-12T03:56:21;47.67;;;21.90;;
29902;SDS011;30288;50.514;9.678;2023-02-12T03:58:31;49.38;;;21.42;;
29902;SDS011;30288;50.514;9.678;2023-02-12T04:00:43;50.25;;;21.25;;
29902;SDS011;30288;50.514;9.678;2023-02-12T04:02:52;52.00;;;21.65;;
29902;SDS011;30288;50.514;9.678;2023-02-12T04:05:02;52.92;;;21.85;;
29902;SDS011;30288;50.514;9.678;2023-02-12T04:07:08;46.22;;;21.02;;
29902;SDS011;30288;50.514;9.678;2023-02-12T04:09:15;49.75;;;22.05;;
29902;SDS011;30288;50.514;9.678;2023-02-12T04:11:24;49.55;;;20.20;;
29902;SDS011;30288;50.514;9.678;2023-02-12T04:13:38;47.67;;;20.50;;
29902;SDS011;30288;50.514;9.678;2023-02-12T04:15:56;53.80;;;23.50;;
29902;SDS011;30288;50.514;9.678;2023-02-12T04:18:23;52.35;;;22.17;;
29902;SDS011;30288;50.514;9.678;2023-02-12T04:20:41;55.08;;;24.27;;
29902;SDS011;30288;50.514;9.678;2023-02-12T04:22:59;54.75;;;22.02;;
29902;SDS011;30288;50.514;9.678;2023-02-12T04:25:22;62.05;;;24.98;;
29902;SDS011;30288;50.514;9.678;2023-02-12T04:27:46;58.53;;;23.40;;
29902;SDS011;30288;50.514;9.678;2023-02-12T04:30:01;51.38;;;22.52;;
29902;SDS011;30288;50.514;9.678;2023-02-12T04:32:11;46.60;;;20.88;;
29902;SDS011;30288;50.514;9.678;2023-02-12T04:34:25;45.78;;;21.30;;
29902;SDS011;30288;50.514;9.678;2023-02-12T04:36:40;43.47;;;19.50;;
29902;SDS011;30288;50.514;9.678;2023-02-12T04:38:53;41.40;;;19.23;;
29902;SDS011;30288;50.514;9.678;2023-02-12T04:41:04;48.50;;;21.23;;
29902;SDS011;30288;50.514;9.678;2023-02-12T04:43:09;50.08;;;22.55;;
29902;SDS011;30288;50.514;9.678;2023-02-12T04:45:15;54.15;;;22.50;;
29902;SDS011;30288;50.514;9.678;2023-02-12T04:47:25;61.42;;;27.65;;
29902;SDS011;30288;50.514;9.678;2023-02-12T04:49:32;62.42;;;26.00;;
29902;SDS011;30288;50.514;9.678;2023-02-12T04:51:37;59.58;;;25.10;;
29902;SDS011;30288;50.514;9.678;2023-02-12T04:53:43;57.50;;;25.58;;
29902;SDS011;30288;50.514;9.678;2023-02-12T04:55:47;59.10;;;25.92;;
29902;SDS011;30288;50.514;9.678;2023-02-12T04:57:53;62.55;;;27.00;;
29902;SDS011;30288;50.514;9.678;2023-02-12T04:59:58;62.58;;;25.50;;
29902;SDS011;30288;50.514;9.678;2023-02-12T05:02:05;60.33;;;25.70;;
29902;SDS011;30288;50.514;9.678;2023-02-12T05:04:11;66.03;;;28.20;;
29902;SDS011;30288;50.514;9.678;2023-02-12T05:06:20;66.28;;;28.05;;
29902;SDS011;30288;50.514;9.678;2023-02-12T05:08:26;58.45;;;25.92;;
29902;SDS011;30288;50.514;9.678;2023-02-12T05:10:30;62.67;;;26.23;;
29902;SDS011;30288;50.514;9.678;2023-02-12T05:12:35;57.25;;;26.23;;
29902;SDS011;30288;50.514;9.678;2023-02-12T05:14:41;59.65;;;25.35;;
29902;SDS011;30288;50.514;9.678;2023-02-12T05:16:46;57.90;;;26.17;;
29902;SDS011;30288;50.514;9.678;2023-02-12T05:18:50;60.92;;;28.00;;
29902;SDS011;30288;50.514;9.678;2023-02-12T05:20:56;64.95;;;26.73;;
29902;SDS011;30288;50.514;9.678;2023-02-12T05:23:04;59.75;;;25.98;;
29902;SDS011;30288;50.514;9.678;2023-02-12T05:25:09;60.05;;;26.30;;
29902;SDS011;30288;50.514;9.678;2023-02-12T05:27:14;55.45;;;25.73;;
29902;SDS011;30288;50.514;9.678;2023-02-12T05:29:19;60.45;;;26.23;;
29902;SDS011;30288;50.514;9.678;2023-02-12T05:31:25;63.40;;;25.08;;
29902;SDS011;30288;50.514;9.678;2023-02-12T05:33:30;59.58;;;25.98;;
29902;SDS011;30288;50.514;9.678;2023-02-12T05:35:35;61.42;;;26.52;;
29902;SDS011;30288;50.514;9.678;2023-02-12T05:37:41;60.10;;;25.75;;
29902;SDS011;30288;50.514;9.678;2023-02-12T05:39:50;61.08;;;26.30;;
29902;SDS011;30288;50.514;9.678;2023-02-12T05:41:54;63.00;;;26.70;;
29902;SDS011;30288;50.514;9.678;2023-02-12T05:44:00;59.97;;;24.95;;
29902;SDS011;30288;50.514;9.678;2023-02-12T05:46:06;59.25;;;26.55;;
29902;SDS011;30288;50.514;9.678;2023-02-12T05:48:11;53.55;;;25.17;;
29902;SDS011;30288;50.514;9.678;2023-02-12T05:50:18;63.35;;;24.98;;
29902;SDS011;30288;50.514;9.678;2023-02-12T05:52:33;53.95;;;24.20;;
29902;SDS011;30288;50.514;9.678;2023-02-12T05:54:38;57.65;;;25.00;;
29902;SDS011;30288;50.514;9.678;2023-02-12T05:56:46;56.95;;;24.23;;
29902;SDS011;30288;50.514;9.678;2023-02-12T05:58:52;63.70;;;25.60;;
29902;SDS011;30288;50.514;9.678;2023-02-12T06:01:00;59.45;;;26.17;;
29902;SDS011;30288;50.514;9.678;2023-02-12T06:03:05;62.10;;;25.80;;
29902;SDS011;30288;50.514;9.678;2023-02-12T06:05:10;60.67;;;26.73;;
29902;SDS011;30288;50.514;9.678;2023-02-12T06:07:15;59.10;;;25.48;;
29902;SDS011;30288;50.514;9.678;2023-02-12T06:09:20;61.53;;;25.88;;
29902;SDS011;30288;50.514;9.678;2023-02-12T06:11:26;64.22;;;27.20;;
29902;SDS011;30288;50.514;9.678;2023-02-12T06:13:34;60.20;;;25.88;;
29902;SDS011;30288;50.514;9.678;2023-02-12T06:15:39;62.40;;;26.67;;
29902;SDS011;30288;50.514;9.678;2023-02-12T06:17:44;58.20;;;25.83;;
29902;SDS011;30288;50.514;9.678;2023-02-12T06:19:49;68.40;;;27.63;;
29902;SDS011;30288;50.514;9.678;2023-02-12T06:21:54;57.53;;;23.60;;
29902;SDS011;30288;50.514;9.678;2023-02-12T06:23:59;61.58;;;26.30;;
29902;SDS011;30288;50.514;9.678;2023-02-12T06:26:05;60.92;;;25.02;;
29902;SDS011;30288;50.514;9.678;2023-02-12T06:28:10;69.07;;;26.80;;
29902;SDS011;30288;50.514;9.678;2023-02-12T06:30:17;60.92;;;26.77;;
29902;SDS011;30288;50.514;9.678;2023-02-12T06:32:23;64.72;;;26.38;;
29902;SDS011;30288;50.514;9.678;2023-02-12T06:34:28;66.45;;;29.15;;
29902;SDS011;30288;50.514;9.678;2023-02-12T06:36:33;62.35;;;27.30;;
29902;SDS011;30288;50.514;9.678;2023-02-12T06:38:40;64.60;;;26.50;;
29902;SDS011;30288;50.514;9.678;2023-02-12T06:40:45;67.20;;;27.80;;
29902;SDS011;30288;50.514;9.678;2023-02-12T06:42:50;67.55;;;26.73;;
29902;SDS011;30288;50.514;9.678;2023-02-12T06:44:55;73.95;;;28.52;;
29902;SDS011;30288;50.514;9.678;2023-02-12T06:47:02;65.90;;;26.77;;
29902;SDS011;30288;50.514;9.678;2023-02-12T06:49:09;69.22;;;28.10;;
29902;SDS011;30288;50.514;9.678;2023-02-12T06:51:17;65.55;;;25.73;;
29902;SDS011;30288;50.514;9.678;2023-02-12T06:53:23;69.78;;;27.38;;
29902;SDS011;30288;50.514;9.678;2023-02-12T06:55:28;66.95;;;26.30;;
29902;SDS011;30288;50.514;9.678;2023-02-12T06:57:33;68.70;;;27.98;;
29902;SDS011;30288;50.514;9.678;2023-02-12T06:59:38;69.20;;;26.33;;
29902;SDS011;30288;50.514;9.678;2023-02-12T07:01:43;65.25;;;26.63;;
29902;SDS011;30288;50.514;9.678;2023-02-12T07:03:52;69.32;;;28.58;;
29902;SDS011;30288;50.514;9.678;2023-02-12T07:05:58;71.78;;;28.08;;
29902;SDS011;30288;50.514;9.678;2023-02-12T07:08:03;67.20;;;27.23;;
29902;SDS011;30288;50.514;9.678;2023-02-12T07:10:08;69.45;;;27.90;;
29902;SDS011;30288;50.514;9.678;2023-02-12T07:12:13;63.13;;;26.63;;
29902;SDS011;30288;50.514;9.678;2023-02-12T07:14:18;64.28;;;25.98;;
29902;SDS011;30288;50.514;9.678;2023-02-12T07:16:23;59.00;;;25.98;;
29902;SDS011;30288;50.514;9.678;2023-02-12T07:18:29;63.78;;;26.35;;
29902;SDS011;30288;50.514;9.678;2023-02-12T07:20:36;65.30;;;26.33;;
29902;SDS011;30288;50.514;9.678;2023-02-12T07:22:41;59.28;;;25.10;;
29902;SDS011;30288;50.514;9.678;2023-02-12T07:24:46;58.85;;;25.63;;
29902;SDS011;30288;50.514;9.678;2023-02-12T07:26:52;69.60;;;27.70;;
29902;SDS011;30288;50.514;9.678;2023-02-12T07:28:57;71.40;;;28.23;;
29902;SDS011;30288;50.514;9.678;2023-02-12T07:31:05;75.72;;;28.75;;
29902;SDS011;30288;50.514;9.678;2023-02-12T07:33:12;67.22;;;28.88;;
29902;SDS011;30288;50.514;9.678;2023-02-12T07:35:16;75.45;;;28.65;;
29902;SDS011;30288;50.514;9.678;2023-02-12T07:37:24;76.30;;;28.90;;
29902;SDS011;30288;50.514;9.678;2023-02-12T07:39:29;83.78;;;32.67;;
29902;SDS011;30288;50.514;9.678;2023-02-12T07:41:34;83.50;;;30.88;;
29902;SDS011;30288;50.514;9.678;2023-02-12T07:43:40;78.05;;;31.58;;
29902;SDS011;30288;50.514;9.678;2023-02-12T07:45:48;85.38;;;32.08;;
29902;SDS011;30288;50.514;9.678;2023-02-12T07:47:53;76.57;;;29.52;;
29902;SDS011;30288;50.514;9.678;2023-02-12T07:49:59;80.68;;;30.73;;
29902;SDS011;30288;50.514;9.678;2023-02-12T07:52:04;71.90;;;30.30;;
29902;SDS011;30288;50.514;9.678;2023-02-12T07:54:13;83.97;;;31.42;;
29902;SDS011;30288;50.514;9.678;2023-02-12T07:56:20;85.95;;;32.30;;
29902;SDS011;30288;50.514;9.678;2023-02-12T07:58:29;76.38;;;30.45;;
29902;SDS011;30288;50.514;9.678;2023-02-12T08:00:35;81.70;;;30.75;;
29902;SDS011;30288;50.514;9.678;2023-02-12T08:02:40;81.45;;;31.73;;
29902;SDS011;30288;50.514;9.678;2023-02-12T08:04:45;85.18;;;31.92;;
29902;SDS011;30288;50.514;9.678;2023-02-12T08:06:51;78.15;;;30.33;;
29902;SDS011;30288;50.514;9.678;2023-02-12T08:08:59;83.63;;;32.10;;
29902;SDS011;30288;50.514;9.678;2023-02-12T08:11:10;76.20;;;30.67;;
29902;SDS011;30288;50.514;9.678;2023-02-12T08:13:18;85.65;;;33.55;;
29902;SDS011;30288;50.514;9.678;2023-02-12T08:15:24;81.07;;;30.55;;
29902;SDS011;30288;50.514;9.678;2023-02-12T08:17:29;80.43;;;31.60;;
29902;SDS011;30288;50.514;9.678;2023-02-12T08:19:35;78.78;;;32.38;;
29902;SDS011;30288;50.514;9.678;2023-02-12T08:21:40;72.55;;;30.48;;
29902;SDS011;30288;50.514;9.678;2023-02-12T08:23:45;87.35;;;32.53;;
29902;SDS011;30288;50.514;9.678;2023-02-12T08:25:52;80.53;;;33.80;;
29902;SDS011;30288;50.514;9.678;2023-02-12T08:28:00;84.22;;;31.83;;
29902;SDS011;30288;50.514;9.678;2023-02-12T08:30:06;85.60;;;32.50;;
29902;SDS011;30288;50.514;9.678;2023-02-12T08:32:15;78.50;;;31.63;;
29902;SDS011;30288;50.514;9.678;2023-02-12T08:34:21;80.88;;;30.92;;
29902;SDS011;30288;50.514;9.678;2023-02-12T08:36:29;86.18;;;34.53;;
29902;SDS011;30288;50.514;9.678;2023-02-12T08:38:40;75.70;;;31.85;;
29902;SDS011;30288;50.514;9.678;2023-02-12T08:40:47;82.90;;;30.88;;
29902;SDS011;30288;50.514;9.678;2023-02-12T08:42:51;81.80;;;32.75;;
29902;SDS011;30288;50.514;9.678;2023-02-12T08:44:59;83.47;;;32.05;;
29902;SDS011;30288;50.514;9.678;2023-02-12T08:47:04;84.30;;;31.23;;
29902;SDS011;30288;50.514;9.678;2023-02-12T08:49:11;80.07;;;31.10;;
29902;SDS011;30288;50.514;9.678;2023-02-12T08:51:19;77.22;;;31.27;;
29902;SDS011;30288;50.514;9.678;2023-02-12T08:53:26;81.13;;;31.00;;
29902;SDS011;30288;50.514;9.678;2023-02-12T08:55:31;74.40;;;29.02;;
29902;SDS011;30288;50.514;9.678;2023-02-12T08:57:37;91.82;;;33.50;;
29902;SDS011;30288;50.514;9.678;2023-02-12T08:59:42;72.95;;;30.38;;
29902;SDS011;30288;50.514;9.678;2023-02-12T09:01:51;70.80;;;32.97;;
29902;SDS011;30288;50.514;9.678;2023-02-12T09:03:57;72.70;;;30.65;;
29902;SDS011;30288;50.514;9.678;2023-02-12T09:06:03;70.20;;;31.35;;
29902;SDS011;30288;50.514;9.678;2023-02-12T09:08:10;76.38;;;30.80;;
29902;SDS011;30288;50.514;9.678;2023-02-12T09:10:15;72.40;;;30.65;;
29902;SDS011;30288;50.514;9.678;2023-02-12T09:12:21;74.45;;;32.10;;
29902;SDS011;30288;50.514;9.678;2023-02-12T09:14:26;70.28;;;32.33;;
29902;SDS011;30288;50.514;9.678;2023-02-12T09:16:34;68.28;;;32.05;;
29902;SDS011;30288;50.514;9.678;2023-02-12T09:18:43;67.80;;;30.10;;
29902;SDS011;30288;50.514;9.678;2023-02-12T09:20:48;65.57;;;30.95;;
29902;SDS011;30288;50.514;9.678;2023-02-12T09:22:53;68.20;;;29.55;;
29902;SDS011;30288;50.514;9.678;2023-02-12T09:24:58;60.40;;;28.85;;
29902;SDS011;30288;50.514;9.678;2023-02-12T09:27:03;70.53;;;29.77;;
29902;SDS011;30288;50.514;9.678;2023-02-12T09:29:08;68.85;;;30.25;;
29902;SDS011;30288;50.514;9.678;2023-02-12T09:31:13;62.67;;;28.95;;
29902;SDS011;30288;50.514;9.678;2023-02-12T09:33:21;65.50;;;29.10;;
29902;SDS011;30288;50.514;9.678;2023-02-12T09:35:28;60.40;;;28.38;;
29902;SDS011;30288;50.514;9.678;2023-02-12T09:37:34;65.60;;;30.83;;
29902;SDS011;30288;50.514;9.678;2023-02-12T09:39:39;66.40;;;30.00;;
29902;SDS011;30288;50.514;9.678;2023-02-12T09:41:49;60.80;;;28.27;;
29902;SDS011;30288;50.514;9.678;2023-02-12T09:44:25;56.63;;;27.50;;
29902;SDS011;30288;50.514;9.678;2023-02-12T09:46:40;59.03;;;27.95;;
29902;SDS011;30288;50.514;9.678;2023-02-12T09:51:06;74.82;;;33.92;;
29902;SDS011;30288;50.514;9.678;2023-02-12T09:53:14;60.25;;;28.73;;
29902;SDS011;30288;50.514;9.678;2023-02-12T09:55:23;62.53;;;28.45;;
29902;SDS011;30288;50.514;9.678;2023-02-12T09:57:33;62.08;;;29.55;;
29902;SDS011;30288;50.514;9.678;2023-02-12T09:59:42;60.35;;;28.70;;
29902;SDS011;30288;50.514;9.678;2023-02-12T10:01:52;54.38;;;26.38;;
29902;SDS011;30288;50.514;9.678;2023-02-12T10:03:57;57.70;;;27.83;;
29902;SDS011;30288;50.514;9.678;2023-02-12T10:06:06;58.95;;;27.08;;
29902;SDS011;30288;50.514;9.678;2023-02-12T10:08:24;53.90;;;26.00;;
29902;SDS011;30288;50.514;9.678;2023-02-12T10:10:49;53.08;;;26.52;;
29902;SDS011;30288;50.514;9.678;2023-02-12T10:12:57;52.42;;;25.35;;
29902;SDS011;30288;50.514;9.678;2023-02-12T10:15:11;57.30;;;27.50;;
29902;SDS011;30288;50.514;9.678;2023-02-12T10:17:32;54.92;;;25.73;;
29902;SDS011;30288;50.514;9.678;2023-02-12T10:20:02;49.20;;;24.83;;
29902;SDS011;30288;50.514;9.678;2023-02-12T10:22:46;45.42;;;24.25;;
29902;SDS011;30288;50.514;9.678;2023-02-12T10:25:06;49.45;;;23.42;;
29902;SDS011;30288;50.514;9.678;2023-02-12T10:27:23;48.08;;;24.40;;
29902;SDS011;30288;50.514;9.678;2023-02-12T10:29:40;45.50;;;24.05;;
29902;SDS011;30288;50.514;9.678;2023-02-12T10:31:50;51.33;;;25.27;;
29902;SDS011;30288;50.514;9.678;2023-02-12T10:34:19;49.38;;;24.40;;
29902;SDS011;30288;50.514;9.678;2023-02-12T10:36:30;50.55;;;27.10;;
29902;SDS011;30288;50.514;9.678;2023-02-12T10:38:48;45.85;;;23.30;;
29902;SDS011;30288;50.514;9.678;2023-02-12T10:40:58;47.17;;;26.33;;
29902;SDS011;30288;50.514;9.678;2023-02-12T10:43:03;49.85;;;25.75;;
29902;SDS011;30288;50.514;9.678;2023-02-12T10:45:11;43.83;;;22.30;;
29902;SDS011;30288;50.514;9.678;2023-02-12T10:47:18;41.97;;;21.13;;
29902;SDS011;30288;50.514;9.678;2023-02-12T10:49:28;44.35;;;21.75;;
29902;SDS011;30288;50.514;9.678;2023-02-12T10:51:37;49.10;;;23.02;;
29902;SDS011;30288;50.514;9.678;2023-02-12T10:54:00;39.88;;;21.23;;
29902;SDS011;30288;50.514;9.678;2023-02-12T10:56:44;38.20;;;20.08;;
29902;SDS011;30288;50.514;9.678;2023-02-12T10:58:50;39.47;;;20.88;;
29902;SDS011;30288;50.514;9.678;2023-02-12T11:01:00;41.25;;;21.42;;
29902;SDS011;30288;50.514;9.678;2023-02-12T11:03:17;40.25;;;21.35;;
29902;SDS011;30288;50.514;9.678;2023-02-12T11:05:27;42.75;;;22.85;;
29902;SDS011;30288;50.514;9.678;2023-02-12T11:07:45;38.10;;;21.27;;
29902;SDS011;30288;50.514;9.678;2023-02-12T11:09:55;42.55;;;20.85;;
29902;SDS011;30288;50.514;9.678;2023-02-12T11:12:00;32.60;;;18.30;;
29902;SDS011;30288;50.514;9.678;2023-02-12T11:14:13;29.92;;;17.23;;
29902;SDS011;30288;50.514;9.678;2023-02-12T11:16:26;33.22;;;17.77;;
29902;SDS011;30288;50.514;9.678;2023-02-12T11:18:34;33.58;;;18.23;;
29902;SDS011;30288;50.514;9.678;2023-02-12T11:20:40;30.38;;;17.05;;
29902;SDS011;30288;50.514;9.678;2023-02-12T11:22:55;29.33;;;16.90;;
29902;SDS011;30288;50.514;9.678;2023-02-12T11:25:13;32.85;;;17.27;;
29902;SDS011;30288;50.514;9.678;2023-02-12T11:27:21;28.38;;;17.17;;
29902;SDS011;30288;50.514;9.678;2023-02-12T11:31:37;30.13;;;16.85;;
29902;SDS011;30288;50.514;9.678;2023-02-12T11:33:43;32.53;;;17.30;;
29902;SDS011;30288;50.514;9.678;2023-02-12T11:35:53;31.25;;;18.20;;
29902;SDS011;30288;50.514;9.678;2023-02-12T11:38:01;27.95;;;16.27;;
29902;SDS011;30288;50.514;9.678;2023-02-12T11:40:14;30.35;;;16.95;;
29902;SDS011;30288;50.514;9.678;2023-02-12T11:42:24;30.80;;;16.33;;
29902;SDS011;30288;50.514;9.678;2023-02-12T11:44:34;29.38;;;15.45;;
29902;SDS011;30288;50.514;9.678;2023-02-12T11:46:44;25.83;;;14.57;;
29902;SDS011;30288;50.514;9.678;2023-02-12T11:48:52;24.67;;;14.48;;
29902;SDS011;30288;50.514;9.678;2023-02-12T11:51:02;26.27;;;14.15;;
29902;SDS011;30288;50.514;9.678;2023-02-12T11:53:16;29.45;;;16.10;;
29902;SDS011;30288;50.514;9.678;2023-02-12T11:55:29;27.55;;;16.98;;
29902;SDS011;30288;50.514;9.678;2023-02-12T11:57:38;28.83;;;16.08;;
29902;SDS011;30288;50.514;9.678;2023-02-12T11:59:49;30.27;;;16.85;;
29902;SDS011;30288;50.514;9.678;2023-02-12T12:01:55;34.60;;;17.73;;
29902;SDS011;30288;50.514;9.678;2023-02-12T12:04:06;29.45;;;16.40;;
29902;SDS011;30288;50.514;9.678;2023-02-12T12:06:23;20.00;;;10.68;;
29902;SDS011;30288;50.514;9.678;2023-02-12T12:08:37;27.85;;;15.98;;
29902;SDS011;30288;50.514;9.678;2023-02-12T12:10:53;26.95;;;15.15;;
29902;SDS011;30288;50.514;9.678;2023-02-12T12:13:05;34.30;;;17.13;;
29902;SDS011;30288;50.514;9.678;2023-02-12T12:15:16;24.58;;;13.88;;
29902;SDS011;30288;50.514;9.678;2023-02-12T12:17:40;14.25;;;6.85;;
29902;SDS011;30288;50.514;9.678;2023-02-12T12:22:15;18.58;;;8.63;;
29902;SDS011;30288;50.514;9.678;2023-02-12T12:24:42;19.45;;;10.48;;
29902;SDS011;30288;50.514;9.678;2023-02-12T12:26:57;19.25;;;11.10;;
29902;SDS011;30288;50.514;9.678;2023-02-12T12:29:16;11.75;;;6.45;;
29902;SDS011;30288;50.514;9.678;2023-02-12T12:31:27;10.48;;;5.53;;
29902;SDS011;30288;50.514;9.678;2023-02-12T12:33:40;13.32;;;6.53;;
29902;SDS011;30288;50.514;9.678;2023-02-12T12:35:53;12.60;;;5.93;;
29902;SDS011;30288;50.514;9.678;2023-02-12T12:38:18;15.05;;;8.25;;
29902;SDS011;30288;50.514;9.678;2023-02-12T12:40:37;21.35;;;11.05;;
29902;SDS011;30288;50.514;9.678;2023-02-12T12:43:06;29.15;;;15.38;;
29902;SDS011;30288;50.514;9.678;2023-02-12T12:45:18;30.48;;;16.27;;
29902;SDS011;30288;50.514;9.678;2023-02-12T12:47:54;26.83;;;14.15;;
29902;SDS011;30288;50.514;9.678;2023-02-12T12:50:21;29.25;;;15.80;;
29902;SDS011;30288;50.514;9.678;2023-02-12T12:52:48;28.83;;;16.63;;